sensor_id;sensor_type;location;lat;lon;timestamp;pressure;altitude;pressure_sealevel;temperature;humidity
70027;BME280;57506;50.092;15.804;2023-07-24T00:01:02;98472.84;;;17.14;99.91
70027;BME280;57506;50.092;15.804;2023-07-24T00:03:28;98478.97;;;17.04;98.48
70027;BME280;57506;50.092;15.804;2023-07-24T00:05:57;98482.06;;;16.91;100.00
70027;BME280;57506;50.092;15.804;2023-07-24T00:08:23;98487.69;;;16.85;100.00
70027;BME280;57506;50.092;15.804;2023-07-24T00:10:49;98482.34;;;16.73;100.00
70027;BME280;57506;50.092;15.804;2023-07-24T00:13:14;98494.34;;;16.72;99.49
70027;BME280;57506;50.092;15.804;2023-07-24T00:15:40;98473.34;;;16.72;97.23
70027;BME280;57506;50.092;15.804;2023-07-24T00:18:06;98479.28;;;16.86;96.87
70027;BME280;57506;50.092;15.804;2023-07-24T00:20:31;98479.91;;;16.71;100.00
70027;BME280;57506;50.092;15.804;2023-07-24T00:22:56;98470.97;;;16.76;98.90
70027;BME280;57506;50.092;15.804;2023-07-24T00:25:22;98473.28;;;16.84;96.49
70027;BME280;57506;50.092;15.804;2023-07-24T00:27:47;98476.72;;;16.79;100.00
70027;BME280;57506;50.092;15.804;2023-07-24T00:30:13;98477.56;;;16.80;100.00
70027;BME280;57506;50.092;15.804;2023-07-24T00:32:38;98476.97;;;16.78;100.00
70027;BME280;57506;50.092;15.804;2023-07-24T00:35:04;98472.13;;;16.80;100.00
70027;BME280;57506;50.092;15.804;2023-07-24T00:37:30;98463.88;;;16.75;99.77
70027;BME280;57506;50.092;15.804;2023-07-24T00:39:56;98473.69;;;16.76;98.60
70027;BME280;57506;50.092;15.804;2023-07-24T00:42:21;98472.03;;;16.75;100.00
70027;BME280;57506;50.092;15.804;2023-07-24T00:44:47;98473.44;;;16.77;100.00
70027;BME280;57506;50.092;15.804;2023-07-24T00:47:12;98468.81;;;16.78;100.00
70027;BME280;57506;50.092;15.804;2023-07-24T00:49:38;98461.69;;;16.94;92.90
70027;BME280;57506;50.092;15.804;2023-07-24T00:52:04;98460.47;;;17.06;92.47
70027;BME280;57506;50.092;15.804;2023-07-24T00:54:30;98459.06;;;17.26;91.18
70027;BME280;57506;50.092;15.804;2023-07-24T00:56:58;98458.84;;;17.54;89.14
70027;BME280;57506;50.092;15.804;2023-07-24T00:59:23;98456.44;;;17.58;88.81
70027;BME280;57506;50.092;15.804;2023-07-24T01:01:49;98455.44;;;17.64;85.73
70027;BME280;57506;50.092;15.804;2023-07-24T01:04:15;98460.41;;;17.72;89.39
70027;BME280;57506;50.092;15.804;2023-07-24T01:06:40;98452.81;;;17.74;90.37
70027;BME280;57506;50.092;15.804;2023-07-24T01:09:06;98454.13;;;17.71;87.79
70027;BME280;57506;50.092;15.804;2023-07-24T01:11:54;98463.47;;;17.54;90.00
70027;BME280;57506;50.092;15.804;2023-07-24T01:14:29;98448.09;;;17.42;93.15
70027;BME280;57506;50.092;15.804;2023-07-24T01:16:58;98461.53;;;17.27;98.04
70027;BME280;57506;50.092;15.804;2023-07-24T01:19:36;98468.88;;;17.05;100.00
70027;BME280;57506;50.092;15.804;2023-07-24T01:22:32;98473.75;;;16.81;100.00
70027;BME280;57506;50.092;15.804;2023-07-24T01:27:51;98457.91;;;16.39;100.00
70027;BME280;57506;50.092;15.804;2023-07-24T01:30:18;98466.47;;;16.31;100.00
70027;BME280;57506;50.092;15.804;2023-07-24T01:32:44;98453.03;;;16.25;100.00
70027;BME280;57506;50.092;15.804;2023-07-24T01:35:10;98446.47;;;16.21;100.00
70027;BME280;57506;50.092;15.804;2023-07-24T01:37:36;98442.94;;;16.20;100.00
70027;BME280;57506;50.092;15.804;2023-07-24T01:40:10;98439.63;;;16.18;100.00
70027;BME280;57506;50.092;15.804;2023-07-24T01:42:36;98436.91;;;16.18;100.00
70027;BME280;57506;50.092;15.804;2023-07-24T01:45:03;98447.31;;;16.21;100.00
70027;BME280;57506;50.092;15.804;2023-07-24T01:47:29;98445.66;;;16.20;100.00
70027;BME280;57506;50.092;15.804;2023-07-24T01:49:57;98441.34;;;16.24;100.00
70027;BME280;57506;50.092;15.804;2023-07-24T01:52:23;98435.03;;;16.19;100.00
70027;BME280;57506;50.092;15.804;2023-07-24T01:54:49;98441.88;;;16.21;100.00
70027;BME280;57506;50.092;15.804;2023-07-24T01:57:15;98442.13;;;16.20;100.00
70027;BME280;57506;50.092;15.804;2023-07-24T01:59:40;98442.03;;;16.15;100.00
70027;BME280;57506;50.092;15.804;2023-07-24T02:02:06;98432.91;;;16.04;100.00
70027;BME280;57506;50.092;15.804;2023-07-24T02:04:32;98445.22;;;16.12;100.00
70027;BME280;57506;50.092;15.804;2023-07-24T02:06:57;98447.06;;;16.06;100.00
70027;BME280;57506;50.092;15.804;2023-07-24T02:09:23;98458.19;;;16.21;100.00
70027;BME280;57506;50.092;15.804;2023-07-24T02:11:48;98459.97;;;16.16;99.22
70027;BME280;57506;50.092;15.804;2023-07-24T02:14:14;98463.50;;;16.33;99.48
70027;BME280;57506;50.092;15.804;2023-07-24T02:16:41;98453.63;;;16.27;98.89
70027;BME280;57506;50.092;15.804;2023-07-24T02:19:07;98462.44;;;16.51;98.47
70027;BME280;57506;50.092;15.804;2023-07-24T02:21:32;98459.47;;;16.35;97.43
70027;BME280;57506;50.092;15.804;2023-07-24T02:23:58;98452.50;;;16.23;98.25
70027;BME280;57506;50.092;15.804;2023-07-24T02:26:24;98452.06;;;16.14;99.23
70027;BME280;57506;50.092;15.804;2023-07-24T02:28:49;98443.00;;;15.92;100.00
70027;BME280;57506;50.092;15.804;2023-07-24T02:31:15;98451.47;;;15.79;100.00
70027;BME280;57506;50.092;15.804;2023-07-24T02:33:41;98457.97;;;15.78;100.00
70027;BME280;57506;50.092;15.804;2023-07-24T02:36:07;98451.31;;;15.68;100.00
70027;BME280;57506;50.092;15.804;2023-07-24T02:38:32;98447.59;;;15.91;100.00
70027;BME280;57506;50.092;15.804;2023-07-24T02:40:58;98441.88;;;15.88;100.00
70027;BME280;57506;50.092;15.804;2023-07-24T02:43:23;98443.66;;;15.82;100.00
70027;BME280;57506;50.092;15.804;2023-07-24T02:45:49;98436.00;;;15.79;99.82
70027;BME280;57506;50.092;15.804;2023-07-24T02:48:14;98445.66;;;15.87;99.31
70027;BME280;57506;50.092;15.804;2023-07-24T02:50:40;98449.34;;;15.81;99.80
70027;BME280;57506;50.092;15.804;2023-07-24T02:53:05;98441.50;;;15.67;98.64
70027;BME280;57506;50.092;15.804;2023-07-24T02:55:31;98445.13;;;15.56;100.00
70027;BME280;57506;50.092;15.804;2023-07-24T02:57:56;98432.88;;;15.42;100.00
70027;BME280;57506;50.092;15.804;2023-07-24T03:00:22;98438.44;;;15.35;100.00
70027;BME280;57506;50.092;15.804;2023-07-24T03:02:47;98442.59;;;15.26;100.00
70027;BME280;57506;50.092;15.804;2023-07-24T03:05:13;98449.59;;;15.51;100.00
70027;BME280;57506;50.092;15.804;2023-07-24T03:07:38;98428.03;;;15.72;100.00
70027;BME280;57506;50.092;15.804;2023-07-24T03:10:04;98435.94;;;15.91;96.88
70027;BME280;57506;50.092;15.804;2023-07-24T03:12:30;98423.16;;;16.08;95.04
70027;BME280;57506;50.092;15.804;2023-07-24T03:14:55;98416.56;;;16.37;92.27
70027;BME280;57506;50.092;15.804;2023-07-24T03:17:22;98413.53;;;16.56;93.42
70027;BME280;57506;50.092;15.804;2023-07-24T03:19:48;98422.38;;;16.63;90.81
70027;BME280;57506;50.092;15.804;2023-07-24T03:22:14;98445.84;;;16.69;91.19
70027;BME280;57506;50.092;15.804;2023-07-24T03:24:40;98434.28;;;16.62;91.62
70027;BME280;57506;50.092;15.804;2023-07-24T03:27:05;98440.75;;;16.56;91.40
70027;BME280;57506;50.092;15.804;2023-07-24T03:29:31;98440.34;;;16.47;92.29
70027;BME280;57506;50.092;15.804;2023-07-24T03:31:56;98456.28;;;16.38;92.93
70027;BME280;57506;50.092;15.804;2023-07-24T03:34:22;98459.16;;;16.32;95.92
70027;BME280;57506;50.092;15.804;2023-07-24T03:36:47;98455.38;;;16.16;97.38
70027;BME280;57506;50.092;15.804;2023-07-24T03:39:13;98460.97;;;16.09;99.29
70027;BME280;57506;50.092;15.804;2023-07-24T03:41:40;98468.63;;;16.13;100.00
70027;BME280;57506;50.092;15.804;2023-07-24T03:44:06;98461.19;;;16.08;100.00
70027;BME280;57506;50.092;15.804;2023-07-24T03:46:32;98466.91;;;16.06;100.00
70027;BME280;57506;50.092;15.804;2023-07-24T03:48:58;98465.06;;;15.95;100.00
70027;BME280;57506;50.092;15.804;2023-07-24T03:51:23;98473.16;;;15.90;100.00
70027;BME280;57506;50.092;15.804;2023-07-24T03:53:49;98477.50;;;15.91;100.00
70027;BME280;57506;50.092;15.804;2023-07-24T03:56:14;98484.75;;;15.86;100.00
70027;BME280;57506;50.092;15.804;2023-07-24T03:58:40;98482.03;;;15.86;100.00
70027;BME280;57506;50.092;15.804;2023-07-24T04:01:06;98478.75;;;15.84;100.00
70027;BME280;57506;50.092;15.804;2023-07-24T04:03:32;98475.06;;;15.90;100.00
70027;BME280;57506;50.092;15.804;2023-07-24T04:05:57;98478.09;;;15.93;100.00
70027;BME280;57506;50.092;15.804;2023-07-24T04:08:23;98464.75;;;15.92;100.00
70027;BME280;57506;50.092;15.804;2023-07-24T04:10:48;98479.75;;;16.11;100.00
70027;BME280;57506;50.092;15.804;2023-07-24T04:13:14;98479.16;;;16.26;100.00
70027;BME280;57506;50.092;15.804;2023-07-24T04:15:39;98474.78;;;16.41;100.00
70027;BME280;57506;50.092;15.804;2023-07-24T04:18:05;98468.69;;;16.68;100.00
70027;BME280;57506;50.092;15.804;2023-07-24T04:20:31;98464.28;;;17.05;100.00
70027;BME280;57506;50.092;15.804;2023-07-24T04:22:56;98459.50;;;17.39;97.55
70027;BME280;57506;50.092;15.804;2023-07-24T04:25:22;98465.34;;;17.75;93.86
70027;BME280;57506;50.092;15.804;2023-07-24T04:27:47;98471.88;;;18.01;94.35
70027;BME280;57506;50.092;15.804;2023-07-24T04:30:13;98464.72;;;18.27;91.32
70027;BME280;57506;50.092;15.804;2023-07-24T04:32:38;98455.50;;;18.38;88.05
70027;BME280;57506;50.092;15.804;2023-07-24T04:35:04;98456.66;;;18.42;86.94
70027;BME280;57506;50.092;15.804;2023-07-24T04:37:30;98453.13;;;18.46;91.45
70027;BME280;57506;50.092;15.804;2023-07-24T04:39:55;98455.59;;;18.48;94.43
70027;BME280;57506;50.092;15.804;2023-07-24T04:42:21;98452.28;;;18.41;96.61
70027;BME280;57506;50.092;15.804;2023-07-24T04:44:46;98448.72;;;18.40;100.00
70027;BME280;57506;50.092;15.804;2023-07-24T04:47:12;98446.50;;;18.37;100.00
70027;BME280;57506;50.092;15.804;2023-07-24T04:49:38;98452.06;;;18.52;97.36
70027;BME280;57506;50.092;15.804;2023-07-24T04:52:03;98430.34;;;18.68;93.15
70027;BME280;57506;50.092;15.804;2023-07-24T04:54:29;98413.28;;;18.93;92.05
70027;BME280;57506;50.092;15.804;2023-07-24T04:56:54;98421.31;;;19.14;87.73
70027;BME280;57506;50.092;15.804;2023-07-24T04:59:20;98402.25;;;19.40;88.40
70027;BME280;57506;50.092;15.804;2023-07-24T05:01:46;98410.22;;;19.56;86.78
70027;BME280;57506;50.092;15.804;2023-07-24T05:04:11;98389.72;;;19.54;85.90
70027;BME280;57506;50.092;15.804;2023-07-24T05:06:36;98392.47;;;19.64;85.37
70027;BME280;57506;50.092;15.804;2023-07-24T05:09:03;98411.63;;;19.74;85.59
70027;BME280;57506;50.092;15.804;2023-07-24T05:11:29;98422.00;;;19.87;85.16
70027;BME280;57506;50.092;15.804;2023-07-24T05:13:54;98427.47;;;19.62;85.94
70027;BME280;57506;50.092;15.804;2023-07-24T05:16:20;98437.00;;;19.54;87.84
70027;BME280;57506;50.092;15.804;2023-07-24T05:18:45;98418.16;;;19.63;89.48
70027;BME280;57506;50.092;15.804;2023-07-24T05:21:11;98417.91;;;19.85;89.60
70027;BME280;57506;50.092;15.804;2023-07-24T05:23:36;98414.63;;;19.88;88.35
70027;BME280;57506;50.092;15.804;2023-07-24T05:26:03;98423.13;;;19.97;86.93
70027;BME280;57506;50.092;15.804;2023-07-24T05:28:30;98407.50;;;20.02;86.99
70027;BME280;57506;50.092;15.804;2023-07-24T05:31:00;98405.06;;;20.11;87.42
70027;BME280;57506;50.092;15.804;2023-07-24T05:33:25;98399.53;;;20.31;84.11
70027;BME280;57506;50.092;15.804;2023-07-24T05:35:51;98418.69;;;20.51;85.32
70027;BME280;57506;50.092;15.804;2023-07-24T05:38:16;98412.63;;;20.65;84.36
70027;BME280;57506;50.092;15.804;2023-07-24T05:40:42;98395.25;;;21.00;80.69
70027;BME280;57506;50.092;15.804;2023-07-24T05:43:07;98386.69;;;21.16;79.28
70027;BME280;57506;50.092;15.804;2023-07-24T05:45:33;98380.81;;;21.43;78.77
70027;BME280;57506;50.092;15.804;2023-07-24T05:47:58;98373.50;;;21.73;75.61
70027;BME280;57506;50.092;15.804;2023-07-24T05:50:24;98348.13;;;21.86;73.25
70027;BME280;57506;50.092;15.804;2023-07-24T05:52:49;98325.28;;;21.95;70.67
70027;BME280;57506;50.092;15.804;2023-07-24T05:55:15;98319.66;;;22.11;71.29
70027;BME280;57506;50.092;15.804;2023-07-24T05:57:40;98323.19;;;22.16;73.11
70027;BME280;57506;50.092;15.804;2023-07-24T06:00:06;98319.00;;;22.24;73.36
70027;BME280;57506;50.092;15.804;2023-07-24T06:02:32;98315.94;;;22.25;72.48
70027;BME280;57506;50.092;15.804;2023-07-24T06:04:58;98318.34;;;22.32;72.69
70027;BME280;57506;50.092;15.804;2023-07-24T06:07:23;98348.53;;;22.32;75.63
70027;BME280;57506;50.092;15.804;2023-07-24T06:09:49;98373.13;;;22.18;76.18
70027;BME280;57506;50.092;15.804;2023-07-24T06:12:14;98351.25;;;22.37;75.44
70027;BME280;57506;50.092;15.804;2023-07-24T06:14:40;98361.97;;;22.57;76.39
70027;BME280;57506;50.092;15.804;2023-07-24T06:17:06;98353.53;;;22.78;73.41
70027;BME280;57506;50.092;15.804;2023-07-24T06:19:31;98359.31;;;23.00;74.03
70027;BME280;57506;50.092;15.804;2023-07-24T06:21:57;98360.69;;;23.21;73.34
70027;BME280;57506;50.092;15.804;2023-07-24T06:24:22;98363.63;;;23.44;70.34
70027;BME280;57506;50.092;15.804;2023-07-24T06:26:49;98350.19;;;23.42;72.57
70027;BME280;57506;50.092;15.804;2023-07-24T06:29:15;98343.28;;;23.63;70.72
70027;BME280;57506;50.092;15.804;2023-07-24T06:31:41;98354.22;;;23.68;69.66
70027;BME280;57506;50.092;15.804;2023-07-24T06:34:06;98357.75;;;23.88;68.03
70027;BME280;57506;50.092;15.804;2023-07-24T06:36:32;98339.22;;;23.93;69.68
70027;BME280;57506;50.092;15.804;2023-07-24T06:38:58;98344.31;;;23.86;68.81
70027;BME280;57506;50.092;15.804;2023-07-24T06:41:23;98340.19;;;24.02;68.84
70027;BME280;57506;50.092;15.804;2023-07-24T06:43:50;98331.91;;;24.02;67.41
70027;BME280;57506;50.092;15.804;2023-07-24T06:46:16;98333.09;;;24.29;66.59
70027;BME280;57506;50.092;15.804;2023-07-24T06:48:41;98348.13;;;24.50;65.08
70027;BME280;57506;50.092;15.804;2023-07-24T06:51:07;98336.50;;;24.81;63.99
70027;BME280;57506;50.092;15.804;2023-07-24T06:53:32;98345.66;;;24.90;63.34
70027;BME280;57506;50.092;15.804;2023-07-24T06:55:58;98353.75;;;25.00;64.17
70027;BME280;57506;50.092;15.804;2023-07-24T06:58:23;98333.81;;;25.03;65.95
70027;BME280;57506;50.092;15.804;2023-07-24T07:00:49;98326.44;;;25.26;62.20
70027;BME280;57506;50.092;15.804;2023-07-24T07:03:14;98331.66;;;25.27;62.70
70027;BME280;57506;50.092;15.804;2023-07-24T07:05:40;98332.31;;;25.47;64.14
70027;BME280;57506;50.092;15.804;2023-07-24T07:08:05;98330.31;;;25.83;64.23
70027;BME280;57506;50.092;15.804;2023-07-24T07:10:31;98331.56;;;25.99;58.51
70027;BME280;57506;50.092;15.804;2023-07-24T07:12:57;98332.06;;;26.01;62.68
70027;BME280;57506;50.092;15.804;2023-07-24T07:15:23;98344.53;;;26.21;59.53
70027;BME280;57506;50.092;15.804;2023-07-24T07:17:48;98323.56;;;26.20;60.96
70027;BME280;57506;50.092;15.804;2023-07-24T07:20:14;98337.56;;;26.46;57.99
70027;BME280;57506;50.092;15.804;2023-07-24T07:22:39;98332.84;;;26.55;61.63
70027;BME280;57506;50.092;15.804;2023-07-24T07:25:05;98335.56;;;26.77;55.36
70027;BME280;57506;50.092;15.804;2023-07-24T07:27:31;98336.59;;;26.99;54.58
70027;BME280;57506;50.092;15.804;2023-07-24T07:29:57;98339.47;;;26.85;55.90
70027;BME280;57506;50.092;15.804;2023-07-24T07:32:22;98350.00;;;26.74;61.74
70027;BME280;57506;50.092;15.804;2023-07-24T07:34:48;98345.47;;;26.78;59.07
70027;BME280;57506;50.092;15.804;2023-07-24T07:37:13;98348.06;;;26.83;56.10
70027;BME280;57506;50.092;15.804;2023-07-24T07:39:39;98341.09;;;26.86;53.42
70027;BME280;57506;50.092;15.804;2023-07-24T07:42:04;98340.94;;;26.91;56.64
70027;BME280;57506;50.092;15.804;2023-07-24T07:44:30;98342.63;;;27.01;52.42
70027;BME280;57506;50.092;15.804;2023-07-24T07:46:56;98340.63;;;26.93;52.27
70027;BME280;57506;50.092;15.804;2023-07-24T07:49:22;98344.81;;;26.81;55.52
70027;BME280;57506;50.092;15.804;2023-07-24T07:51:47;98348.00;;;26.66;55.54
70027;BME280;57506;50.092;15.804;2023-07-24T07:54:13;98339.72;;;26.66;53.11
70027;BME280;57506;50.092;15.804;2023-07-24T07:56:39;98338.25;;;26.60;51.90
70027;BME280;57506;50.092;15.804;2023-07-24T07:59:04;98324.56;;;26.55;53.42
70027;BME280;57506;50.092;15.804;2023-07-24T08:01:30;98327.03;;;26.57;53.24
70027;BME280;57506;50.092;15.804;2023-07-24T08:03:56;98336.13;;;26.57;52.98
70027;BME280;57506;50.092;15.804;2023-07-24T08:06:21;98334.38;;;26.70;51.43
70027;BME280;57506;50.092;15.804;2023-07-24T08:08:47;98329.97;;;26.60;54.65
70027;BME280;57506;50.092;15.804;2023-07-24T08:11:13;98340.84;;;26.65;52.18
70027;BME280;57506;50.092;15.804;2023-07-24T08:13:38;98333.47;;;26.43;52.16
70027;BME280;57506;50.092;15.804;2023-07-24T08:16:04;98324.13;;;26.31;52.64
70027;BME280;57506;50.092;15.804;2023-07-24T08:18:30;98324.59;;;26.02;53.08
70027;BME280;57506;50.092;15.804;2023-07-24T08:20:56;98325.59;;;26.06;54.56
70027;BME280;57506;50.092;15.804;2023-07-24T08:23:21;98328.03;;;26.07;51.39
70027;BME280;57506;50.092;15.804;2023-07-24T08:25:51;98326.69;;;26.27;53.49
70027;BME280;57506;50.092;15.804;2023-07-24T08:28:17;98329.41;;;26.19;53.56
70027;BME280;57506;50.092;15.804;2023-07-24T08:30:42;98318.53;;;26.22;50.95
70027;BME280;57506;50.092;15.804;2023-07-24T08:33:08;98323.66;;;26.29;52.87
70027;BME280;57506;50.092;15.804;2023-07-24T08:35:33;98304.47;;;26.32;50.36
70027;BME280;57506;50.092;15.804;2023-07-24T08:37:59;98300.66;;;26.20;50.40
70027;BME280;57506;50.092;15.804;2023-07-24T08:40:25;98300.03;;;26.23;50.64
70027;BME280;57506;50.092;15.804;2023-07-24T08:42:51;98287.75;;;26.37;52.58
70027;BME280;57506;50.092;15.804;2023-07-24T08:45:17;98288.94;;;26.45;49.50
70027;BME280;57506;50.092;15.804;2023-07-24T08:47:44;98287.66;;;26.51;49.90
70027;BME280;57506;50.092;15.804;2023-07-24T08:50:10;98277.94;;;26.62;52.24
70027;BME280;57506;50.092;15.804;2023-07-24T08:52:40;98269.53;;;26.84;52.20
70027;BME280;57506;50.092;15.804;2023-07-24T08:55:08;98257.50;;;26.89;48.98
70027;BME280;57506;50.092;15.804;2023-07-24T08:57:34;98256.59;;;27.20;49.55
70027;BME280;57506;50.092;15.804;2023-07-24T08:59:59;98255.78;;;27.19;49.26
70027;BME280;57506;50.092;15.804;2023-07-24T09:02:33;98266.34;;;27.34;50.44
70027;BME280;57506;50.092;15.804;2023-07-24T09:04:59;98262.28;;;27.40;48.06
70027;BME280;57506;50.092;15.804;2023-07-24T09:07:24;98270.41;;;27.45;48.91
70027;BME280;57506;50.092;15.804;2023-07-24T09:09:50;98259.34;;;27.63;49.55
70027;BME280;57506;50.092;15.804;2023-07-24T09:12:16;98256.09;;;27.69;49.63
70027;BME280;57506;50.092;15.804;2023-07-24T09:14:42;98247.13;;;27.64;50.89
70027;BME280;57506;50.092;15.804;2023-07-24T09:17:09;98239.88;;;27.97;46.78
70027;BME280;57506;50.092;15.804;2023-07-24T09:19:35;98238.19;;;28.13;46.39
70027;BME280;57506;50.092;15.804;2023-07-24T09:22:11;98229.88;;;28.13;46.13
70027;BME280;57506;50.092;15.804;2023-07-24T09:24:49;98223.38;;;28.47;48.88
70027;BME280;57506;50.092;15.804;2023-07-24T09:27:15;98229.97;;;28.64;47.24
70027;BME280;57506;50.092;15.804;2023-07-24T09:29:41;98222.56;;;28.47;45.14
70027;BME280;57506;50.092;15.804;2023-07-24T09:32:07;98217.00;;;28.09;43.17
70027;BME280;57506;50.092;15.804;2023-07-24T09:34:33;98213.09;;;28.10;43.12
70027;BME280;57506;50.092;15.804;2023-07-24T09:36:58;98220.44;;;28.14;44.76
70027;BME280;57506;50.092;15.804;2023-07-24T09:39:25;98222.72;;;28.12;47.11
70027;BME280;57506;50.092;15.804;2023-07-24T09:41:51;98222.72;;;28.12;46.76
70027;BME280;57506;50.092;15.804;2023-07-24T09:44:18;98215.50;;;28.29;46.98
70027;BME280;57506;50.092;15.804;2023-07-24T09:46:44;98210.81;;;28.20;43.55
70027;BME280;57506;50.092;15.804;2023-07-24T09:49:09;98209.97;;;28.29;43.17
70027;BME280;57506;50.092;15.804;2023-07-24T09:51:36;98207.56;;;28.48;42.14
70027;BME280;57506;50.092;15.804;2023-07-24T09:54:25;98209.16;;;28.87;46.27
70027;BME280;57506;50.092;15.804;2023-07-24T09:56:55;98197.50;;;29.14;41.77
70027;BME280;57506;50.092;15.804;2023-07-24T09:59:22;98195.44;;;29.44;43.35
70027;BME280;57506;50.092;15.804;2023-07-24T10:01:49;98202.75;;;29.49;40.32
70027;BME280;57506;50.092;15.804;2023-07-24T10:04:15;98190.63;;;29.53;40.43
70027;BME280;57506;50.092;15.804;2023-07-24T10:06:43;98182.03;;;29.46;41.41
70027;BME280;57506;50.092;15.804;2023-07-24T10:09:08;98171.22;;;29.33;40.14
70027;BME280;57506;50.092;15.804;2023-07-24T10:11:34;98168.38;;;29.41;40.63
70027;BME280;57506;50.092;15.804;2023-07-24T10:14:00;98161.94;;;29.49;42.91
70027;BME280;57506;50.092;15.804;2023-07-24T10:16:26;98160.00;;;29.74;43.19
70027;BME280;57506;50.092;15.804;2023-07-24T10:18:52;98156.44;;;29.86;41.81
70027;BME280;57506;50.092;15.804;2023-07-24T10:21:18;98146.84;;;29.83;41.76
70027;BME280;57506;50.092;15.804;2023-07-24T10:23:51;98138.47;;;29.59;40.04
70027;BME280;57506;50.092;15.804;2023-07-24T10:26:24;98142.03;;;29.59;41.33
70027;BME280;57506;50.092;15.804;2023-07-24T10:28:51;98141.72;;;29.73;40.36
70027;BME280;57506;50.092;15.804;2023-07-24T10:31:22;98140.28;;;30.00;40.61
70027;BME280;57506;50.092;15.804;2023-07-24T10:33:48;98151.28;;;30.09;40.36
70027;BME280;57506;50.092;15.804;2023-07-24T10:36:17;98138.84;;;29.94;39.91
70027;BME280;57506;50.092;15.804;2023-07-24T10:38:45;98144.22;;;30.11;39.84
70027;BME280;57506;50.092;15.804;2023-07-24T10:41:12;98132.28;;;30.23;38.05
70027;BME280;57506;50.092;15.804;2023-07-24T10:43:48;98142.69;;;30.50;39.69
70027;BME280;57506;50.092;15.804;2023-07-24T10:46:15;98134.91;;;30.56;38.01
70027;BME280;57506;50.092;15.804;2023-07-24T10:48:46;98126.56;;;30.56;40.97
70027;BME280;57506;50.092;15.804;2023-07-24T10:51:12;98123.31;;;30.66;38.62
70027;BME280;57506;50.092;15.804;2023-07-24T10:53:45;98119.38;;;30.67;38.53
70027;BME280;57506;50.092;15.804;2023-07-24T10:56:11;98118.41;;;31.03;38.69
70027;BME280;57506;50.092;15.804;2023-07-24T10:58:37;98100.13;;;31.30;36.24
70027;BME280;57506;50.092;15.804;2023-07-24T11:01:06;98100.53;;;31.60;36.16
70027;BME280;57506;50.092;15.804;2023-07-24T11:03:35;98105.31;;;31.91;37.49
70027;BME280;57506;50.092;15.804;2023-07-24T11:06:01;98094.03;;;32.19;37.80
70027;BME280;57506;50.092;15.804;2023-07-24T11:08:27;98102.25;;;32.27;38.30
70027;BME280;57506;50.092;15.804;2023-07-24T11:10:55;98100.53;;;32.23;37.61
70027;BME280;57506;50.092;15.804;2023-07-24T11:13:27;98087.63;;;32.18;37.16
70027;BME280;57506;50.092;15.804;2023-07-24T11:15:54;98078.09;;;32.35;35.96
70027;BME280;57506;50.092;15.804;2023-07-24T11:18:21;98085.53;;;32.47;38.95
70027;BME280;57506;50.092;15.804;2023-07-24T11:20:54;98071.78;;;32.73;35.24
70027;BME280;57506;50.092;15.804;2023-07-24T11:23:20;98064.03;;;32.66;36.47
70027;BME280;57506;50.092;15.804;2023-07-24T11:25:53;98064.53;;;32.53;36.37
70027;BME280;57506;50.092;15.804;2023-07-24T11:28:19;98052.19;;;32.34;37.12
70027;BME280;57506;50.092;15.804;2023-07-24T11:30:45;98050.66;;;32.37;37.31
70027;BME280;57506;50.092;15.804;2023-07-24T11:33:12;98046.66;;;32.03;37.37
70027;BME280;57506;50.092;15.804;2023-07-24T11:35:39;98042.84;;;31.92;38.31
70027;BME280;57506;50.092;15.804;2023-07-24T11:38:08;98030.94;;;32.11;37.68
70027;BME280;57506;50.092;15.804;2023-07-24T11:40:42;98040.31;;;31.87;36.55
70027;BME280;57506;50.092;15.804;2023-07-24T11:43:19;98028.72;;;31.85;36.63
70027;BME280;57506;50.092;15.804;2023-07-24T11:45:46;98018.03;;;31.87;38.58
70027;BME280;57506;50.092;15.804;2023-07-24T11:48:18;98011.59;;;32.02;36.63
70027;BME280;57506;50.092;15.804;2023-07-24T11:50:49;98012.03;;;32.20;36.41
70027;BME280;57506;50.092;15.804;2023-07-24T11:53:29;98009.78;;;32.25;36.92
70027;BME280;57506;50.092;15.804;2023-07-24T11:55:57;98012.63;;;32.67;39.03
70027;BME280;57506;50.092;15.804;2023-07-24T11:58:26;98009.22;;;32.74;36.52
70027;BME280;57506;50.092;15.804;2023-07-24T12:00:53;98010.16;;;32.08;36.51
70027;BME280;57506;50.092;15.804;2023-07-24T12:03:24;98003.06;;;32.11;36.14
70027;BME280;57506;50.092;15.804;2023-07-24T12:05:50;97988.06;;;32.34;36.55
70027;BME280;57506;50.092;15.804;2023-07-24T12:08:17;97972.66;;;32.41;35.22
70027;BME280;57506;50.092;15.804;2023-07-24T12:10:44;97966.72;;;32.23;35.38
70027;BME280;57506;50.092;15.804;2023-07-24T12:13:10;97993.94;;;32.29;36.09
70027;BME280;57506;50.092;15.804;2023-07-24T12:15:36;97989.91;;;31.76;36.37
70027;BME280;57506;50.092;15.804;2023-07-24T12:18:03;97979.47;;;31.89;38.81
70027;BME280;57506;50.092;15.804;2023-07-24T12:20:29;97986.06;;;31.81;38.66
70027;BME280;57506;50.092;15.804;2023-07-24T12:22:55;97992.97;;;31.55;36.44
70027;BME280;57506;50.092;15.804;2023-07-24T12:25:21;97980.59;;;31.37;36.95
70027;BME280;57506;50.092;15.804;2023-07-24T12:27:47;97974.66;;;31.39;36.09
70027;BME280;57506;50.092;15.804;2023-07-24T12:30:13;97986.69;;;31.27;36.74
70027;BME280;57506;50.092;15.804;2023-07-24T12:32:41;97985.59;;;31.00;38.10
70027;BME280;57506;50.092;15.804;2023-07-24T12:35:10;97982.16;;;31.07;38.24
70027;BME280;57506;50.092;15.804;2023-07-24T12:37:36;97985.13;;;30.98;37.09
70027;BME280;57506;50.092;15.804;2023-07-24T12:40:04;97977.75;;;30.90;37.19
70027;BME280;57506;50.092;15.804;2023-07-24T12:42:30;97983.41;;;30.93;37.40
70027;BME280;57506;50.092;15.804;2023-07-24T12:44:56;97978.75;;;30.98;39.03
70027;BME280;57506;50.092;15.804;2023-07-24T12:47:23;97986.78;;;31.15;39.59